Argo II — SY5614 — position and weather

sailwx.info

Track history (hours):
 
Tides and Currents Weather Stations Pressure Air Temp Water Temp Dewpoint Dewpoint Depression Visibility Wind Speed Wind Dir Waves Ship Positions

Argo II

Last reported at 2018-Apr-25 18:37 UTC. Time now 2018-Jun-22 22:57 UTC.
Position N 39°54' E 023°60'.
Warning: this ship's position is 58 days out of date.

Length 32 m; draft 3.8 m.

Type: Fishing. MMSI: 240259000.

Date/timePositionNaut miles runAvg speedWind from/ knotsBaromVisibWave heightAir tempDewpointWater temp
2018-Apr-25 18:37N 39°54' E 023°60'1 8.5
2018-Apr-25 18:30N 39°54' E 024°01'4 8.6
2018-Apr-25 18:00N 39°52' E 024°06'5 8.9
2018-Apr-25 17:28N 39°49' E 024°11'4 8.7
2018-Apr-25 17:00N 39°47' E 024°15'13 0.3
2018-Apr-24 03:49N 39°41' E 024°30'1 4.2
2018-Apr-24 03:30N 39°41' E 024°29'4 8.2
2018-Apr-24 03:00N 39°42' E 024°23'5 8.8
2018-Apr-24 02:23N 39°46' E 024°18'3 8.5
2018-Apr-24 02:00N 39°48' E 024°15'4 8.3
2018-Apr-24 01:30N 39°50' E 024°10'4 8.1
2018-Apr-24 01:00N 39°52' E 024°05'5 8.3
2018-Apr-24 00:27N 39°54' E 024°00'18 0.4
2018-Apr-22 01:47N 39°41' E 024°17'3 9.0
2018-Apr-22 01:29N 39°42' E 024°13'4 8.9
2018-Apr-22 00:59N 39°43' E 024°08'  
2018-Apr-18 18:38N 39°57' E 024°01'10 8.6
2018-Apr-18 17:30N 40°02' E 024°12'5 9.1
2018-Apr-18 17:00N 40°04' E 024°17'4 8.9
2018-Apr-18 16:30N 40°06' E 024°22'4 8.7
2018-Apr-18 16:00N 40°10' E 024°26'9 0.3
2018-Apr-17 10:53N 40°19' E 024°22'1 3.2
2018-Apr-17 10:30N 40°18' E 024°23'2 3.8
2018-Apr-17 10:00N 40°16' E 024°24'1 1.6
2018-Apr-17 09:31N 40°17' E 024°23'2 3.2
2018-Apr-17 09:01N 40°18' E 024°23'2 3.1
2018-Apr-17 08:31N 40°19' E 024°22'2 3.2
2018-Apr-17 08:01N 40°21' E 024°20'2 3.1
2018-Apr-17 07:30N 40°22' E 024°19'2 3.1
2018-Apr-17 06:59N 40°24' E 024°19'2 3.1
2018-Apr-17 06:30N 40°25' E 024°19'2 3.2
2018-Apr-17 05:55N 40°27' E 024°19'3 3.2
2018-Apr-17 05:04N 40°29' E 024°20'0 3.1
2018-Apr-17 04:57N 40°30' E 024°21'1 3.1
2018-Apr-17 04:30N 40°31' E 024°22'2 4.0
2018-Apr-17 04:00N 40°33' E 024°23'4 8.1
2018-Apr-17 03:31N 40°37' E 024°23'4 8.3
2018-Apr-17 02:59N 40°41' E 024°22'4 8.7
2018-Apr-17 02:30N 40°45' E 024°21'5 9.4
2018-Apr-17 02:01N 40°50' E 024°21'2 3.5
2018-Apr-17 01:30N 40°51' E 024°19'0 0.0
2018-Apr-17 01:00N 40°51' E 024°19'0 0.0
2018-Apr-17 00:31N 40°51' E 024°19'0 0.0
2018-Apr-17 00:01N 40°51' E 024°19'0 0.0
2018-Apr-16 23:27N 40°51' E 024°19'0 0.0
2018-Apr-16 22:47N 40°51' E 024°19'0 0.0
2018-Apr-16 22:31N 40°51' E 024°19'0 0.0
2018-Apr-16 21:46N 40°51' E 024°19'0 0.0
2018-Apr-16 21:30N 40°51' E 024°19'0 0.0
2018-Apr-16 21:00N 40°51' E 024°19'0 0.0
2018-Apr-16 20:31N 40°51' E 024°19'0 0.0
2018-Apr-16 20:00N 40°51' E 024°19'0 0.0
2018-Apr-16 19:30N 40°51' E 024°19'0 0.0
2018-Apr-16 19:00N 40°51' E 024°19'2 4.5
2018-Apr-16 18:30N 40°49' E 024°20'4 7.3
2018-Apr-16 18:00N 40°46' E 024°17'9 3.4
2018-Apr-16 15:25N 40°39' E 024°10'1 3.2
2018-Apr-16 15:01N 40°39' E 024°11'2 3.1
2018-Apr-16 14:31N 40°39' E 024°13'2 3.0
2018-Apr-16 14:00N 40°40' E 024°15'2 3.0
2018-Apr-16 13:31N 40°40' E 024°17'1 2.7
2018-Apr-16 13:00N 40°41' E 024°18'3 6.1
2018-Apr-16 12:30N 40°44' E 024°15'1 1.8
2018-Apr-16 11:59N 40°44' E 024°14'2 3.0
2018-Apr-16 11:29N 40°43' E 024°12'1 2.9
2018-Apr-16 11:00N 40°43' E 024°11'2 3.0
2018-Apr-16 10:30N 40°42' E 024°09'2 3.1
2018-Apr-16 09:47N 40°41' E 024°06'1 3.0
2018-Apr-16 09:30N 40°40' E 024°05'1 3.0
2018-Apr-16 09:01N 40°40' E 024°04'2 3.0
2018-Apr-16 08:21N 40°38' E 024°02'1 3.5
2018-Apr-16 07:58N 40°37' E 024°00'2 2.5
2018-Apr-16 07:02N 40°39' E 024°02'0 2.8
2018-Apr-16 07:01N 40°39' E 024°02'2 2.8
2018-Apr-16 06:29N 40°40' E 024°04'2 3.0
2018-Apr-16 05:58N 40°41' E 024°06'2 3.1
2018-Apr-16 05:25N 40°42' E 024°08'1 3.0
2018-Apr-16 05:01N 40°42' E 024°09'2 3.0
2018-Apr-16 04:31N 40°43' E 024°11'2 3.1
2018-Apr-16 04:01N 40°43' E 024°13'2 3.1
2018-Apr-16 03:30N 40°43' E 024°15'4 7.5
2018-Apr-16 03:00N 40°46' E 024°19'5 0.7
2018-Apr-15 18:56N 40°51' E 024°19'  
Track history (hours):
 
Tides and Currents Weather Stations Pressure Air Temp Water Temp Dewpoint Dewpoint Depression Visibility Wind Speed Wind Dir Waves Ship Positions

Argo II

Last reported at 2018-Apr-25 18:37 UTC. Time now 2018-Jun-22 22:57 UTC.
Position N 39°54' E 023°60'.
Warning: this ship's position is 58 days out of date.

Length 32 m; draft 3.8 m.

Type: Fishing. MMSI: 240259000.

Date/timePositionNaut miles runAvg speedWind from/ knotsBaromVisibWave heightAir tempDewpointWater temp
2018-Apr-25 18:37N 39°54' E 023°60'1 8.5
2018-Apr-25 18:30N 39°54' E 024°01'4 8.6
2018-Apr-25 18:00N 39°52' E 024°06'5 8.9
2018-Apr-25 17:28N 39°49' E 024°11'4 8.7
2018-Apr-25 17:00N 39°47' E 024°15'13 0.3
2018-Apr-24 03:49N 39°41' E 024°30'1 4.2
2018-Apr-24 03:30N 39°41' E 024°29'4 8.2
2018-Apr-24 03:00N 39°42' E 024°23'5 8.8
2018-Apr-24 02:23N 39°46' E 024°18'3 8.5
2018-Apr-24 02:00N 39°48' E 024°15'4 8.3
2018-Apr-24 01:30N 39°50' E 024°10'4 8.1
2018-Apr-24 01:00N 39°52' E 024°05'5 8.3
2018-Apr-24 00:27N 39°54' E 024°00'18 0.4
2018-Apr-22 01:47N 39°41' E 024°17'3 9.0
2018-Apr-22 01:29N 39°42' E 024°13'4 8.9
2018-Apr-22 00:59N 39°43' E 024°08'  
2018-Apr-18 18:38N 39°57' E 024°01'10 8.6
2018-Apr-18 17:30N 40°02' E 024°12'5 9.1
2018-Apr-18 17:00N 40°04' E 024°17'4 8.9
2018-Apr-18 16:30N 40°06' E 024°22'4 8.7
2018-Apr-18 16:00N 40°10' E 024°26'9 0.3
2018-Apr-17 10:53N 40°19' E 024°22'1 3.2
2018-Apr-17 10:30N 40°18' E 024°23'2 3.8
2018-Apr-17 10:00N 40°16' E 024°24'1 1.6
2018-Apr-17 09:31N 40°17' E 024°23'2 3.2
2018-Apr-17 09:01N 40°18' E 024°23'2 3.1
2018-Apr-17 08:31N 40°19' E 024°22'2 3.2
2018-Apr-17 08:01N 40°21' E 024°20'2 3.1
2018-Apr-17 07:30N 40°22' E 024°19'2 3.1
2018-Apr-17 06:59N 40°24' E 024°19'2 3.1
2018-Apr-17 06:30N 40°25' E 024°19'2 3.2
2018-Apr-17 05:55N 40°27' E 024°19'3 3.2
2018-Apr-17 05:04N 40°29' E 024°20'0 3.1
2018-Apr-17 04:57N 40°30' E 024°21'1 3.1
2018-Apr-17 04:30N 40°31' E 024°22'2 4.0
2018-Apr-17 04:00N 40°33' E 024°23'4 8.1
2018-Apr-17 03:31N 40°37' E 024°23'4 8.3
2018-Apr-17 02:59N 40°41' E 024°22'4 8.7
2018-Apr-17 02:30N 40°45' E 024°21'5 9.4
2018-Apr-17 02:01N 40°50' E 024°21'2 3.5
2018-Apr-17 01:30N 40°51' E 024°19'0 0.0
2018-Apr-17 01:00N 40°51' E 024°19'0 0.0
2018-Apr-17 00:31N 40°51' E 024°19'0 0.0
2018-Apr-17 00:01N 40°51' E 024°19'0 0.0
2018-Apr-16 23:27N 40°51' E 024°19'0 0.0
2018-Apr-16 22:47N 40°51' E 024°19'0 0.0
2018-Apr-16 22:31N 40°51' E 024°19'0 0.0
2018-Apr-16 21:46N 40°51' E 024°19'0 0.0
2018-Apr-16 21:30N 40°51' E 024°19'0 0.0
2018-Apr-16 21:00N 40°51' E 024°19'0 0.0
2018-Apr-16 20:31N 40°51' E 024°19'0 0.0
2018-Apr-16 20:00N 40°51' E 024°19'0 0.0
2018-Apr-16 19:30N 40°51' E 024°19'0 0.0
2018-Apr-16 19:00N 40°51' E 024°19'2 4.5
2018-Apr-16 18:30N 40°49' E 024°20'4 7.3
2018-Apr-16 18:00N 40°46' E 024°17'9 3.4
2018-Apr-16 15:25N 40°39' E 024°10'1 3.2
2018-Apr-16 15:01N 40°39' E 024°11'2 3.1
2018-Apr-16 14:31N 40°39' E 024°13'2 3.0
2018-Apr-16 14:00N 40°40' E 024°15'2 3.0
2018-Apr-16 13:31N 40°40' E 024°17'1 2.7
2018-Apr-16 13:00N 40°41' E 024°18'3 6.1
2018-Apr-16 12:30N 40°44' E 024°15'1 1.8
2018-Apr-16 11:59N 40°44' E 024°14'2 3.0
2018-Apr-16 11:29N 40°43' E 024°12'1 2.9
2018-Apr-16 11:00N 40°43' E 024°11'2 3.0
2018-Apr-16 10:30N 40°42' E 024°09'2 3.1
2018-Apr-16 09:47N 40°41' E 024°06'1 3.0
2018-Apr-16 09:30N 40°40' E 024°05'1 3.0
2018-Apr-16 09:01N 40°40' E 024°04'2 3.0
2018-Apr-16 08:21N 40°38' E 024°02'1 3.5
2018-Apr-16 07:58N 40°37' E 024°00'2 2.5
2018-Apr-16 07:02N 40°39' E 024°02'0 2.8
2018-Apr-16 07:01N 40°39' E 024°02'2 2.8
2018-Apr-16 06:29N 40°40' E 024°04'2 3.0
2018-Apr-16 05:58N 40°41' E 024°06'2 3.1
2018-Apr-16 05:25N 40°42' E 024°08'1 3.0
2018-Apr-16 05:01N 40°42' E 024°09'2 3.0
2018-Apr-16 04:31N 40°43' E 024°11'2 3.1
2018-Apr-16 04:01N 40°43' E 024°13'2 3.1
2018-Apr-16 03:30N 40°43' E 024°15'4 7.5
2018-Apr-16 03:00N 40°46' E 024°19'5 0.7
2018-Apr-15 18:56N 40°51' E 024°19'  

Dump ship's entire track history